sensor_id;sensor_type;location;lat;lon;timestamp;temperature;humidity
46217;DHT22;47258;59.424;13.482;2024-03-06T00:03:18;0.80;99.90
46217;DHT22;47258;59.424;13.482;2024-03-06T00:10:35;0.80;99.90
46217;DHT22;47258;59.424;13.482;2024-03-06T00:13:46;0.70;99.90
46217;DHT22;47258;59.424;13.482;2024-03-06T00:16:45;0.70;99.90
46217;DHT22;47258;59.424;13.482;2024-03-06T00:20:07;0.60;99.90
46217;DHT22;47258;59.424;13.482;2024-03-06T00:26:49;0.40;99.90
46217;DHT22;47258;59.424;13.482;2024-03-06T00:29:59;0.40;99.90
46217;DHT22;47258;59.424;13.482;2024-03-06T00:39:40;0.20;99.90
46217;DHT22;47258;59.424;13.482;2024-03-06T00:42:36;0.10;99.90
46217;DHT22;47258;59.424;13.482;2024-03-06T00:45:31;0.10;99.90
46217;DHT22;47258;59.424;13.482;2024-03-06T00:48:21;0.00;99.90
46217;DHT22;47258;59.424;13.482;2024-03-06T00:50:57;0.00;99.90
46217;DHT22;47258;59.424;13.482;2024-03-06T00:56:15;-0.10;99.90
46217;DHT22;47258;59.424;13.482;2024-03-06T00:58:42;-0.20;99.90
46217;DHT22;47258;59.424;13.482;2024-03-06T01:01:10;-0.10;99.90
46217;DHT22;47258;59.424;13.482;2024-03-06T01:03:43;-0.20;99.90
46217;DHT22;47258;59.424;13.482;2024-03-06T01:06:09;-0.20;99.90
46217;DHT22;47258;59.424;13.482;2024-03-06T01:08:38;-0.20;99.90
46217;DHT22;47258;59.424;13.482;2024-03-06T01:11:04;-0.30;99.90
46217;DHT22;47258;59.424;13.482;2024-03-06T01:13:31;-0.40;99.90
46217;DHT22;47258;59.424;13.482;2024-03-06T01:16:07;-0.40;99.90
46217;DHT22;47258;59.424;13.482;2024-03-06T01:18:47;-0.40;99.90
46217;DHT22;47258;59.424;13.482;2024-03-06T01:21:19;-0.40;99.90
46217;DHT22;47258;59.424;13.482;2024-03-06T01:23:51;-0.50;99.90
46217;DHT22;47258;59.424;13.482;2024-03-06T01:26:17;-0.50;99.90
46217;DHT22;47258;59.424;13.482;2024-03-06T01:28:47;-0.60;99.90
46217;DHT22;47258;59.424;13.482;2024-03-06T01:31:13;-0.60;99.90
46217;DHT22;47258;59.424;13.482;2024-03-06T01:36:50;-0.70;99.90
46217;DHT22;47258;59.424;13.482;2024-03-06T01:39:33;-0.70;99.90
46217;DHT22;47258;59.424;13.482;2024-03-06T01:42:35;-0.70;99.90
46217;DHT22;47258;59.424;13.482;2024-03-06T01:45:16;-0.80;99.90
46217;DHT22;47258;59.424;13.482;2024-03-06T01:48:09;-0.80;99.90
46217;DHT22;47258;59.424;13.482;2024-03-06T01:51:09;-0.80;99.90
46217;DHT22;47258;59.424;13.482;2024-03-06T01:53:51;-0.80;99.90
46217;DHT22;47258;59.424;13.482;2024-03-06T01:56:44;-0.80;99.90
46217;DHT22;47258;59.424;13.482;2024-03-06T02:02:36;-0.80;99.90
46217;DHT22;47258;59.424;13.482;2024-03-06T02:05:22;-0.80;99.90
46217;DHT22;47258;59.424;13.482;2024-03-06T02:08:03;-0.80;99.90
46217;DHT22;47258;59.424;13.482;2024-03-06T02:10:33;-0.80;99.90
46217;DHT22;47258;59.424;13.482;2024-03-06T02:13:07;-0.80;99.90
46217;DHT22;47258;59.424;13.482;2024-03-06T02:15:37;-0.80;99.90
46217;DHT22;47258;59.424;13.482;2024-03-06T02:18:33;-0.80;99.90
46217;DHT22;47258;59.424;13.482;2024-03-06T02:21:12;-0.70;99.90
46217;DHT22;47258;59.424;13.482;2024-03-06T02:27:15;-0.50;99.90
46217;DHT22;47258;59.424;13.482;2024-03-06T02:29:55;-0.40;99.90
46217;DHT22;47258;59.424;13.482;2024-03-06T02:32:45;-0.30;99.90
46217;DHT22;47258;59.424;13.482;2024-03-06T02:35:52;-0.20;99.90
46217;DHT22;47258;59.424;13.482;2024-03-06T02:38:50;-0.20;99.90
46217;DHT22;47258;59.424;13.482;2024-03-06T02:41:48;-0.10;99.90
46217;DHT22;47258;59.424;13.482;2024-03-06T02:47:46;0.00;99.90
46217;DHT22;47258;59.424;13.482;2024-03-06T02:50:17;0.10;99.90
46217;DHT22;47258;59.424;13.482;2024-03-06T02:52:58;0.10;99.90
46217;DHT22;47258;59.424;13.482;2024-03-06T02:55:26;0.10;99.90
46217;DHT22;47258;59.424;13.482;2024-03-06T02:58:08;0.20;99.90
46217;DHT22;47258;59.424;13.482;2024-03-06T03:00:44;0.20;99.90
46217;DHT22;47258;59.424;13.482;2024-03-06T03:03:27;0.20;99.90
46217;DHT22;47258;59.424;13.482;2024-03-06T03:05:56;0.20;99.90
46217;DHT22;47258;59.424;13.482;2024-03-06T03:08:28;0.20;99.90
46217;DHT22;47258;59.424;13.482;2024-03-06T03:10:58;0.20;99.90
46217;DHT22;47258;59.424;13.482;2024-03-06T03:13:46;0.20;99.90
46217;DHT22;47258;59.424;13.482;2024-03-06T03:16:18;0.20;99.90
46217;DHT22;47258;59.424;13.482;2024-03-06T03:18:48;0.30;99.90
46217;DHT22;47258;59.424;13.482;2024-03-06T03:21:48;0.30;99.90
46217;DHT22;47258;59.424;13.482;2024-03-06T03:24:33;0.40;99.90
46217;DHT22;47258;59.424;13.482;2024-03-06T03:27:05;0.30;99.90
46217;DHT22;47258;59.424;13.482;2024-03-06T03:29:35;0.40;99.90
46217;DHT22;47258;59.424;13.482;2024-03-06T03:32:06;0.40;99.90
46217;DHT22;47258;59.424;13.482;2024-03-06T03:34:47;0.50;99.90
46217;DHT22;47258;59.424;13.482;2024-03-06T03:37:16;0.40;99.90
46217;DHT22;47258;59.424;13.482;2024-03-06T03:39:45;0.40;99.90
46217;DHT22;47258;59.424;13.482;2024-03-06T03:42:22;0.50;99.90
46217;DHT22;47258;59.424;13.482;2024-03-06T03:45:01;0.40;99.90
46217;DHT22;47258;59.424;13.482;2024-03-06T03:47:28;0.40;99.90
46217;DHT22;47258;59.424;13.482;2024-03-06T03:50:03;0.40;99.90
46217;DHT22;47258;59.424;13.482;2024-03-06T03:52:40;0.50;99.90
46217;DHT22;47258;59.424;13.482;2024-03-06T03:55:19;0.50;99.90
46217;DHT22;47258;59.424;13.482;2024-03-06T03:58:40;0.50;99.90
46217;DHT22;47258;59.424;13.482;2024-03-06T04:01:47;0.50;99.90
46217;DHT22;47258;59.424;13.482;2024-03-06T04:04:28;0.60;99.90
46217;DHT22;47258;59.424;13.482;2024-03-06T04:07:06;0.50;99.90
46217;DHT22;47258;59.424;13.482;2024-03-06T04:09:49;0.50;99.90
46217;DHT22;47258;59.424;13.482;2024-03-06T04:12:37;0.50;99.90
46217;DHT22;47258;59.424;13.482;2024-03-06T04:15:19;0.50;99.90
46217;DHT22;47258;59.424;13.482;2024-03-06T04:17:54;0.50;99.90
46217;DHT22;47258;59.424;13.482;2024-03-06T04:21:03;0.50;99.90
46217;DHT22;47258;59.424;13.482;2024-03-06T04:23:49;0.50;99.90
46217;DHT22;47258;59.424;13.482;2024-03-06T04:26:53;0.60;99.90
46217;DHT22;47258;59.424;13.482;2024-03-06T04:30:03;0.60;99.90
46217;DHT22;47258;59.424;13.482;2024-03-06T04:33:00;0.60;99.90
46217;DHT22;47258;59.424;13.482;2024-03-06T04:36:07;0.60;99.90
46217;DHT22;47258;59.424;13.482;2024-03-06T04:39:25;0.70;99.90
46217;DHT22;47258;59.424;13.482;2024-03-06T04:42:14;0.70;99.90
46217;DHT22;47258;59.424;13.482;2024-03-06T04:44:59;0.70;99.90
46217;DHT22;47258;59.424;13.482;2024-03-06T04:48:07;0.60;99.90
46217;DHT22;47258;59.424;13.482;2024-03-06T04:50:46;0.60;99.90
46217;DHT22;47258;59.424;13.482;2024-03-06T04:53:15;0.60;99.90
46217;DHT22;47258;59.424;13.482;2024-03-06T04:55:51;0.60;99.90
46217;DHT22;47258;59.424;13.482;2024-03-06T04:58:40;0.50;99.90
46217;DHT22;47258;59.424;13.482;2024-03-06T05:04:55;0.50;99.90
46217;DHT22;47258;59.424;13.482;2024-03-06T05:07:32;0.50;99.90
46217;DHT22;47258;59.424;13.482;2024-03-06T05:10:15;0.50;99.90
46217;DHT22;47258;59.424;13.482;2024-03-06T05:12:56;0.60;99.90
46217;DHT22;47258;59.424;13.482;2024-03-06T05:15:45;0.50;99.90
46217;DHT22;47258;59.424;13.482;2024-03-06T05:18:33;0.50;99.90
46217;DHT22;47258;59.424;13.482;2024-03-06T05:21:13;0.50;99.90
46217;DHT22;47258;59.424;13.482;2024-03-06T05:23:44;0.50;99.90
46217;DHT22;47258;59.424;13.482;2024-03-06T05:26:35;0.50;99.90
46217;DHT22;47258;59.424;13.482;2024-03-06T05:29:50;0.50;99.90
46217;DHT22;47258;59.424;13.482;2024-03-06T05:32:50;0.50;99.90
46217;DHT22;47258;59.424;13.482;2024-03-06T05:36:05;0.50;99.90
46217;DHT22;47258;59.424;13.482;2024-03-06T05:38:56;0.50;99.90
46217;DHT22;47258;59.424;13.482;2024-03-06T05:41:36;0.40;99.90
46217;DHT22;47258;59.424;13.482;2024-03-06T05:44:33;0.40;99.90
46217;DHT22;47258;59.424;13.482;2024-03-06T05:47:27;0.40;99.90
46217;DHT22;47258;59.424;13.482;2024-03-06T05:50:25;0.40;99.90
46217;DHT22;47258;59.424;13.482;2024-03-06T05:53:10;0.40;99.90
46217;DHT22;47258;59.424;13.482;2024-03-06T05:56:18;0.40;99.90
46217;DHT22;47258;59.424;13.482;2024-03-06T05:59:00;0.40;99.90
46217;DHT22;47258;59.424;13.482;2024-03-06T06:02:15;0.40;99.90
46217;DHT22;47258;59.424;13.482;2024-03-06T06:04:51;0.40;99.90
46217;DHT22;47258;59.424;13.482;2024-03-06T06:07:51;0.40;99.90
46217;DHT22;47258;59.424;13.482;2024-03-06T06:10:24;0.40;99.90
46217;DHT22;47258;59.424;13.482;2024-03-06T06:13:19;0.40;99.90
46217;DHT22;47258;59.424;13.482;2024-03-06T06:15:46;0.40;99.90
46217;DHT22;47258;59.424;13.482;2024-03-06T06:18:18;0.30;99.90
46217;DHT22;47258;59.424;13.482;2024-03-06T06:20:52;0.30;99.90
46217;DHT22;47258;59.424;13.482;2024-03-06T06:23:21;0.30;99.90
46217;DHT22;47258;59.424;13.482;2024-03-06T06:25:48;0.30;99.90
46217;DHT22;47258;59.424;13.482;2024-03-06T06:28:21;0.30;99.90
46217;DHT22;47258;59.424;13.482;2024-03-06T06:30:48;0.40;99.90
46217;DHT22;47258;59.424;13.482;2024-03-06T06:33:20;0.40;99.90
46217;DHT22;47258;59.424;13.482;2024-03-06T06:35:54;0.40;99.90
46217;DHT22;47258;59.424;13.482;2024-03-06T06:38:21;0.50;99.90
46217;DHT22;47258;59.424;13.482;2024-03-06T06:40:50;0.50;99.90
46217;DHT22;47258;59.424;13.482;2024-03-06T06:43:21;0.50;99.90
46217;DHT22;47258;59.424;13.482;2024-03-06T06:46:08;0.50;99.90
46217;DHT22;47258;59.424;13.482;2024-03-06T06:48:40;0.50;99.90
46217;DHT22;47258;59.424;13.482;2024-03-06T06:51:24;0.50;99.90
46217;DHT22;47258;59.424;13.482;2024-03-06T06:57:17;0.60;99.90
46217;DHT22;47258;59.424;13.482;2024-03-06T06:59:51;0.70;99.90
46217;DHT22;47258;59.424;13.482;2024-03-06T07:02:33;0.70;99.90
46217;DHT22;47258;59.424;13.482;2024-03-06T07:12:15;0.70;99.90
46217;DHT22;47258;59.424;13.482;2024-03-06T07:15:10;0.80;99.90
46217;DHT22;47258;59.424;13.482;2024-03-06T07:18:08;0.80;99.90
46217;DHT22;47258;59.424;13.482;2024-03-06T07:21:18;0.80;99.90
46217;DHT22;47258;59.424;13.482;2024-03-06T07:24:01;0.90;99.90
46217;DHT22;47258;59.424;13.482;2024-03-06T07:26:54;1.00;99.90
46217;DHT22;47258;59.424;13.482;2024-03-06T07:30:05;1.00;99.90
46217;DHT22;47258;59.424;13.482;2024-03-06T07:32:55;0.90;99.90
46217;DHT22;47258;59.424;13.482;2024-03-06T07:35:53;0.90;99.90
46217;DHT22;47258;59.424;13.482;2024-03-06T07:38:32;0.80;99.90
46217;DHT22;47258;59.424;13.482;2024-03-06T07:41:15;0.80;99.90
46217;DHT22;47258;59.424;13.482;2024-03-06T07:44:57;0.80;99.90
46217;DHT22;47258;59.424;13.482;2024-03-06T07:47:36;0.80;99.90
46217;DHT22;47258;59.424;13.482;2024-03-06T07:50:40;0.80;99.90
46217;DHT22;47258;59.424;13.482;2024-03-06T07:53:17;0.80;99.90
46217;DHT22;47258;59.424;13.482;2024-03-06T07:55:53;0.90;99.90
46217;DHT22;47258;59.424;13.482;2024-03-06T07:58:50;0.90;99.90
46217;DHT22;47258;59.424;13.482;2024-03-06T08:01:59;1.00;99.90
46217;DHT22;47258;59.424;13.482;2024-03-06T08:04:30;1.10;99.90
46217;DHT22;47258;59.424;13.482;2024-03-06T08:07:34;1.10;99.90
46217;DHT22;47258;59.424;13.482;2024-03-06T08:14:01;1.30;99.90
46217;DHT22;47258;59.424;13.482;2024-03-06T08:20:35;1.20;99.90
46217;DHT22;47258;59.424;13.482;2024-03-06T08:23:33;1.20;99.90
46217;DHT22;47258;59.424;13.482;2024-03-06T08:29:39;1.00;99.90
46217;DHT22;47258;59.424;13.482;2024-03-06T08:32:49;1.00;99.90
46217;DHT22;47258;59.424;13.482;2024-03-06T08:35:37;1.10;99.90
46217;DHT22;47258;59.424;13.482;2024-03-06T08:38:29;1.10;99.90
46217;DHT22;47258;59.424;13.482;2024-03-06T08:41:28;1.10;99.90
46217;DHT22;47258;59.424;13.482;2024-03-06T08:44:22;1.20;99.90
46217;DHT22;47258;59.424;13.482;2024-03-06T08:47:11;1.10;99.90
46217;DHT22;47258;59.424;13.482;2024-03-06T08:49:41;1.20;99.90
46217;DHT22;47258;59.424;13.482;2024-03-06T08:52:08;1.20;99.90
46217;DHT22;47258;59.424;13.482;2024-03-06T08:54:36;1.30;99.90
46217;DHT22;47258;59.424;13.482;2024-03-06T08:57:04;1.40;99.90
46217;DHT22;47258;59.424;13.482;2024-03-06T08:59:34;1.40;99.90
46217;DHT22;47258;59.424;13.482;2024-03-06T09:02:13;1.50;99.90
46217;DHT22;47258;59.424;13.482;2024-03-06T09:04:40;1.60;99.90
46217;DHT22;47258;59.424;13.482;2024-03-06T09:07:16;1.60;99.90
46217;DHT22;47258;59.424;13.482;2024-03-06T09:09:42;1.60;99.90
46217;DHT22;47258;59.424;13.482;2024-03-06T09:12:10;1.50;99.90
46217;DHT22;47258;59.424;13.482;2024-03-06T09:14:44;1.50;99.90
46217;DHT22;47258;59.424;13.482;2024-03-06T09:17:12;1.50;99.90
46217;DHT22;47258;59.424;13.482;2024-03-06T09:19:45;1.60;99.90
46217;DHT22;47258;59.424;13.482;2024-03-06T09:22:16;1.60;99.90
46217;DHT22;47258;59.424;13.482;2024-03-06T09:24:53;1.70;99.90
46217;DHT22;47258;59.424;13.482;2024-03-06T09:27:26;1.70;99.90
46217;DHT22;47258;59.424;13.482;2024-03-06T09:29:53;1.70;99.90
46217;DHT22;47258;59.424;13.482;2024-03-06T09:32:27;1.60;99.90
46217;DHT22;47258;59.424;13.482;2024-03-06T09:35:00;1.50;99.90
46217;DHT22;47258;59.424;13.482;2024-03-06T09:37:30;1.50;99.90
46217;DHT22;47258;59.424;13.482;2024-03-06T09:40:24;1.50;99.90
46217;DHT22;47258;59.424;13.482;2024-03-06T09:42:54;1.50;99.90
46217;DHT22;47258;59.424;13.482;2024-03-06T09:45:22;1.40;99.90
46217;DHT22;47258;59.424;13.482;2024-03-06T09:47:49;1.40;99.90
46217;DHT22;47258;59.424;13.482;2024-03-06T09:50:23;1.40;99.90
46217;DHT22;47258;59.424;13.482;2024-03-06T09:52:51;1.40;99.90
46217;DHT22;47258;59.424;13.482;2024-03-06T09:55:20;1.40;99.90
46217;DHT22;47258;59.424;13.482;2024-03-06T09:57:47;1.50;99.90
46217;DHT22;47258;59.424;13.482;2024-03-06T10:00:14;1.50;99.90
46217;DHT22;47258;59.424;13.482;2024-03-06T10:03:12;1.50;99.90
46217;DHT22;47258;59.424;13.482;2024-03-06T10:05:39;1.60;99.90
46217;DHT22;47258;59.424;13.482;2024-03-06T10:08:05;1.60;99.90
46217;DHT22;47258;59.424;13.482;2024-03-06T10:10:32;1.70;99.90
46217;DHT22;47258;59.424;13.482;2024-03-06T10:12:58;1.80;99.90
46217;DHT22;47258;59.424;13.482;2024-03-06T10:15:26;1.70;99.90
46217;DHT22;47258;59.424;13.482;2024-03-06T10:18:10;1.70;99.90
46217;DHT22;47258;59.424;13.482;2024-03-06T10:20:37;1.80;99.90
46217;DHT22;47258;59.424;13.482;2024-03-06T10:23:04;1.80;99.90
46217;DHT22;47258;59.424;13.482;2024-03-06T10:25:30;1.80;99.90
46217;DHT22;47258;59.424;13.482;2024-03-06T10:28:06;1.70;99.90
46217;DHT22;47258;59.424;13.482;2024-03-06T10:30:37;1.70;99.90
46217;DHT22;47258;59.424;13.482;2024-03-06T10:33:04;1.80;99.90
46217;DHT22;47258;59.424;13.482;2024-03-06T10:35:34;1.90;99.90
46217;DHT22;47258;59.424;13.482;2024-03-06T10:38:01;1.80;99.90
46217;DHT22;47258;59.424;13.482;2024-03-06T10:40:35;1.90;99.90
46217;DHT22;47258;59.424;13.482;2024-03-06T10:43:09;2.10;99.90
46217;DHT22;47258;59.424;13.482;2024-03-06T10:45:46;2.10;99.90
46217;DHT22;47258;59.424;13.482;2024-03-06T10:48:19;2.20;99.90
46217;DHT22;47258;59.424;13.482;2024-03-06T10:50:47;2.20;99.90
46217;DHT22;47258;59.424;13.482;2024-03-06T10:53:18;2.20;99.90
46217;DHT22;47258;59.424;13.482;2024-03-06T10:55:49;2.40;99.90
46217;DHT22;47258;59.424;13.482;2024-03-06T10:58:15;2.60;99.90
46217;DHT22;47258;59.424;13.482;2024-03-06T11:00:46;2.70;99.90
46217;DHT22;47258;59.424;13.482;2024-03-06T11:03:13;2.80;99.90
46217;DHT22;47258;59.424;13.482;2024-03-06T11:05:43;2.80;99.90
46217;DHT22;47258;59.424;13.482;2024-03-06T11:08:13;2.70;99.90
46217;DHT22;47258;59.424;13.482;2024-03-06T11:10:46;2.70;99.90
46217;DHT22;47258;59.424;13.482;2024-03-06T11:13:26;2.70;99.90
46217;DHT22;47258;59.424;13.482;2024-03-06T11:16:13;2.70;99.90
46217;DHT22;47258;59.424;13.482;2024-03-06T11:18:43;2.60;99.90
46217;DHT22;47258;59.424;13.482;2024-03-06T11:23:35;2.70;99.90
46217;DHT22;47258;59.424;13.482;2024-03-06T11:26:20;2.70;99.90
46217;DHT22;47258;59.424;13.482;2024-03-06T11:28:47;2.70;99.90
46217;DHT22;47258;59.424;13.482;2024-03-06T11:31:16;2.70;99.90
46217;DHT22;47258;59.424;13.482;2024-03-06T11:33:52;3.00;99.90
46217;DHT22;47258;59.424;13.482;2024-03-06T11:36:26;3.00;99.90
46217;DHT22;47258;59.424;13.482;2024-03-06T11:39:01;3.10;99.90
46217;DHT22;47258;59.424;13.482;2024-03-06T11:44:07;3.20;99.90
46217;DHT22;47258;59.424;13.482;2024-03-06T11:46:49;3.20;99.90
46217;DHT22;47258;59.424;13.482;2024-03-06T11:49:26;3.20;99.90
46217;DHT22;47258;59.424;13.482;2024-03-06T11:51:56;3.10;99.90
46217;DHT22;47258;59.424;13.482;2024-03-06T11:54:28;3.10;99.90
46217;DHT22;47258;59.424;13.482;2024-03-06T11:57:10;3.20;99.90
46217;DHT22;47258;59.424;13.482;2024-03-06T11:59:42;3.30;99.90
46217;DHT22;47258;59.424;13.482;2024-03-06T12:02:14;3.40;99.90
46217;DHT22;47258;59.424;13.482;2024-03-06T12:04:48;3.40;99.90
46217;DHT22;47258;59.424;13.482;2024-03-06T12:07:29;3.40;99.90
46217;DHT22;47258;59.424;13.482;2024-03-06T12:10:00;3.30;99.90
46217;DHT22;47258;59.424;13.482;2024-03-06T12:12:37;3.40;99.90
46217;DHT22;47258;59.424;13.482;2024-03-06T12:15:09;3.40;99.90
46217;DHT22;47258;59.424;13.482;2024-03-06T12:17:44;3.40;99.90
46217;DHT22;47258;59.424;13.482;2024-03-06T12:20:16;3.50;99.90
46217;DHT22;47258;59.424;13.482;2024-03-06T12:22:51;3.60;99.90
46217;DHT22;47258;59.424;13.482;2024-03-06T12:25:23;3.50;99.90
46217;DHT22;47258;59.424;13.482;2024-03-06T12:27:52;3.50;99.90
46217;DHT22;47258;59.424;13.482;2024-03-06T12:30:23;3.60;99.90
46217;DHT22;47258;59.424;13.482;2024-03-06T12:32:59;3.70;99.90
46217;DHT22;47258;59.424;13.482;2024-03-06T12:35:30;3.70;99.90
46217;DHT22;47258;59.424;13.482;2024-03-06T12:38:12;3.80;99.90
46217;DHT22;47258;59.424;13.482;2024-03-06T12:40:43;3.90;99.90
46217;DHT22;47258;59.424;13.482;2024-03-06T12:43:19;4.00;99.90
46217;DHT22;47258;59.424;13.482;2024-03-06T12:45:51;4.10;99.90
46217;DHT22;47258;59.424;13.482;2024-03-06T12:48:23;4.10;99.90
46217;DHT22;47258;59.424;13.482;2024-03-06T12:50:52;4.10;99.90
46217;DHT22;47258;59.424;13.482;2024-03-06T12:53:21;4.10;99.90
46217;DHT22;47258;59.424;13.482;2024-03-06T12:55:49;4.00;99.90
46217;DHT22;47258;59.424;13.482;2024-03-06T12:58:20;4.00;99.90
46217;DHT22;47258;59.424;13.482;2024-03-06T13:00:50;4.10;99.90
46217;DHT22;47258;59.424;13.482;2024-03-06T13:03:19;4.10;99.90
46217;DHT22;47258;59.424;13.482;2024-03-06T13:05:56;4.10;99.90
46217;DHT22;47258;59.424;13.482;2024-03-06T13:08:28;4.30;99.90
46217;DHT22;47258;59.424;13.482;2024-03-06T13:11:06;4.40;99.90
46217;DHT22;47258;59.424;13.482;2024-03-06T13:13:35;4.50;99.90
46217;DHT22;47258;59.424;13.482;2024-03-06T13:16:02;4.70;99.90
46217;DHT22;47258;59.424;13.482;2024-03-06T13:18:31;4.80;99.90
46217;DHT22;47258;59.424;13.482;2024-03-06T13:21:11;4.90;99.90
46217;DHT22;47258;59.424;13.482;2024-03-06T13:23:41;5.10;99.90
46217;DHT22;47258;59.424;13.482;2024-03-06T13:26:18;5.10;99.90
46217;DHT22;47258;59.424;13.482;2024-03-06T13:28:53;5.10;99.90
46217;DHT22;47258;59.424;13.482;2024-03-06T13:31:24;5.10;99.90
46217;DHT22;47258;59.424;13.482;2024-03-06T13:33:54;5.00;99.90
46217;DHT22;47258;59.424;13.482;2024-03-06T13:36:26;4.90;99.90
46217;DHT22;47258;59.424;13.482;2024-03-06T13:39:13;5.00;99.90
46217;DHT22;47258;59.424;13.482;2024-03-06T13:41:46;5.10;99.90
46217;DHT22;47258;59.424;13.482;2024-03-06T13:44:27;5.30;99.90
46217;DHT22;47258;59.424;13.482;2024-03-06T13:47:00;5.40;99.90
46217;DHT22;47258;59.424;13.482;2024-03-06T13:49:43;5.50;99.90
46217;DHT22;47258;59.424;13.482;2024-03-06T13:52:14;5.70;99.90
46217;DHT22;47258;59.424;13.482;2024-03-06T13:54:53;5.80;99.90
46217;DHT22;47258;59.424;13.482;2024-03-06T13:57:26;5.90;99.90
46217;DHT22;47258;59.424;13.482;2024-03-06T14:00:08;6.00;99.90
46217;DHT22;47258;59.424;13.482;2024-03-06T14:02:42;6.10;99.90
46217;DHT22;47258;59.424;13.482;2024-03-06T14:05:20;6.10;99.90
46217;DHT22;47258;59.424;13.482;2024-03-06T14:07:54;6.10;99.90
46217;DHT22;47258;59.424;13.482;2024-03-06T14:10:39;6.10;99.90
46217;DHT22;47258;59.424;13.482;2024-03-06T14:13:18;6.10;99.90
46217;DHT22;47258;59.424;13.482;2024-03-06T14:15:48;6.10;99.90
46217;DHT22;47258;59.424;13.482;2024-03-06T14:18:42;6.10;99.90
46217;DHT22;47258;59.424;13.482;2024-03-06T14:21:13;6.10;99.90
46217;DHT22;47258;59.424;13.482;2024-03-06T14:24:12;6.10;99.90
46217;DHT22;47258;59.424;13.482;2024-03-06T14:26:46;6.00;99.90
46217;DHT22;47258;59.424;13.482;2024-03-06T14:29:20;6.00;99.90
46217;DHT22;47258;59.424;13.482;2024-03-06T14:31:48;6.00;99.90
46217;DHT22;47258;59.424;13.482;2024-03-06T14:34:15;6.00;99.90
46217;DHT22;47258;59.424;13.482;2024-03-06T14:36:42;6.00;99.90
46217;DHT22;47258;59.424;13.482;2024-03-06T14:39:08;5.90;99.90
46217;DHT22;47258;59.424;13.482;2024-03-06T14:41:36;5.90;99.90
46217;DHT22;47258;59.424;13.482;2024-03-06T14:44:03;5.90;99.90
46217;DHT22;47258;59.424;13.482;2024-03-06T14:46:35;5.90;99.90
46217;DHT22;47258;59.424;13.482;2024-03-06T14:49:02;5.90;99.90
46217;DHT22;47258;59.424;13.482;2024-03-06T14:51:30;5.80;99.90
46217;DHT22;47258;59.424;13.482;2024-03-06T14:53:56;5.80;99.90
46217;DHT22;47258;59.424;13.482;2024-03-06T14:56:22;5.70;99.90
46217;DHT22;47258;59.424;13.482;2024-03-06T14:58:49;5.70;99.90
46217;DHT22;47258;59.424;13.482;2024-03-06T15:01:15;5.60;99.90
46217;DHT22;47258;59.424;13.482;2024-03-06T15:03:41;5.60;99.90
46217;DHT22;47258;59.424;13.482;2024-03-06T15:06:07;5.60;99.90
46217;DHT22;47258;59.424;13.482;2024-03-06T15:08:33;5.50;99.90
46217;DHT22;47258;59.424;13.482;2024-03-06T15:11:06;5.50;99.90
46217;DHT22;47258;59.424;13.482;2024-03-06T15:13:32;5.40;99.90
46217;DHT22;47258;59.424;13.482;2024-03-06T15:16:00;5.40;99.90
46217;DHT22;47258;59.424;13.482;2024-03-06T15:18:26;5.30;99.90
46217;DHT22;47258;59.424;13.482;2024-03-06T15:20:56;5.20;99.90
46217;DHT22;47258;59.424;13.482;2024-03-06T15:23:27;5.20;99.90
46217;DHT22;47258;59.424;13.482;2024-03-06T15:25:54;5.20;99.90
46217;DHT22;47258;59.424;13.482;2024-03-06T15:28:22;5.10;99.90
46217;DHT22;47258;59.424;13.482;2024-03-06T15:30:48;4.90;99.90
46217;DHT22;47258;59.424;13.482;2024-03-06T15:33:14;4.80;99.90
46217;DHT22;47258;59.424;13.482;2024-03-06T15:35:40;4.60;99.90
46217;DHT22;47258;59.424;13.482;2024-03-06T15:38:07;4.50;99.90
46217;DHT22;47258;59.424;13.482;2024-03-06T15:40:34;4.30;99.90
46217;DHT22;47258;59.424;13.482;2024-03-06T15:43:07;4.10;99.90
46217;DHT22;47258;59.424;13.482;2024-03-06T15:45:56;4.00;99.90
46217;DHT22;47258;59.424;13.482;2024-03-06T15:48:33;3.70;99.90
46217;DHT22;47258;59.424;13.482;2024-03-06T15:51:01;3.60;99.90
46217;DHT22;47258;59.424;13.482;2024-03-06T15:53:31;3.50;99.90
46217;DHT22;47258;59.424;13.482;2024-03-06T15:56:28;3.50;99.90
46217;DHT22;47258;59.424;13.482;2024-03-06T15:59:00;3.40;99.90
46217;DHT22;47258;59.424;13.482;2024-03-06T16:01:33;3.30;99.90
46217;DHT22;47258;59.424;13.482;2024-03-06T16:04:13;3.30;99.90
46217;DHT22;47258;59.424;13.482;2024-03-06T16:06:41;3.20;99.90
46217;DHT22;47258;59.424;13.482;2024-03-06T16:09:14;3.10;99.90
46217;DHT22;47258;59.424;13.482;2024-03-06T16:11:48;3.00;99.90
46217;DHT22;47258;59.424;13.482;2024-03-06T16:17:24;2.90;99.90
46217;DHT22;47258;59.424;13.482;2024-03-06T16:19:57;2.80;99.90
46217;DHT22;47258;59.424;13.482;2024-03-06T16:22:35;2.70;99.90
46217;DHT22;47258;59.424;13.482;2024-03-06T16:25:09;2.60;99.90
46217;DHT22;47258;59.424;13.482;2024-03-06T16:27:46;2.50;99.90
46217;DHT22;47258;59.424;13.482;2024-03-06T16:30:17;2.50;99.90
46217;DHT22;47258;59.424;13.482;2024-03-06T16:32:45;2.40;99.90
46217;DHT22;47258;59.424;13.482;2024-03-06T16:35:12;2.40;99.90
46217;DHT22;47258;59.424;13.482;2024-03-06T16:37:41;2.30;99.90
46217;DHT22;47258;59.424;13.482;2024-03-06T16:40:10;2.30;99.90
46217;DHT22;47258;59.424;13.482;2024-03-06T16:42:48;2.20;99.90
46217;DHT22;47258;59.424;13.482;2024-03-06T16:45:19;2.10;99.90
46217;DHT22;47258;59.424;13.482;2024-03-06T16:47:52;2.00;99.90
46217;DHT22;47258;59.424;13.482;2024-03-06T16:50:28;1.90;99.90
46217;DHT22;47258;59.424;13.482;2024-03-06T16:53:14;1.80;99.90
46217;DHT22;47258;59.424;13.482;2024-03-06T16:55:49;1.70;99.90
46217;DHT22;47258;59.424;13.482;2024-03-06T16:58:17;1.60;99.90
46217;DHT22;47258;59.424;13.482;2024-03-06T17:00:56;1.50;99.90
46217;DHT22;47258;59.424;13.482;2024-03-06T17:03:27;1.40;99.90
46217;DHT22;47258;59.424;13.482;2024-03-06T17:05:58;1.30;99.90
46217;DHT22;47258;59.424;13.482;2024-03-06T17:08:26;1.30;99.90
46217;DHT22;47258;59.424;13.482;2024-03-06T17:10:59;1.20;99.90
46217;DHT22;47258;59.424;13.482;2024-03-06T17:13:32;1.10;99.90
46217;DHT22;47258;59.424;13.482;2024-03-06T17:16:14;1.00;99.90
46217;DHT22;47258;59.424;13.482;2024-03-06T17:18:45;0.90;99.90
46217;DHT22;47258;59.424;13.482;2024-03-06T17:21:12;0.90;99.90
46217;DHT22;47258;59.424;13.482;2024-03-06T17:24:00;0.80;99.90
46217;DHT22;47258;59.424;13.482;2024-03-06T17:26:31;0.70;99.90
46217;DHT22;47258;59.424;13.482;2024-03-06T17:29:03;0.60;99.90
46217;DHT22;47258;59.424;13.482;2024-03-06T17:31:53;0.60;99.90
46217;DHT22;47258;59.424;13.482;2024-03-06T17:34:28;0.50;99.90
46217;DHT22;47258;59.424;13.482;2024-03-06T17:36:57;0.40;99.90
46217;DHT22;47258;59.424;13.482;2024-03-06T17:39:23;0.30;99.90
46217;DHT22;47258;59.424;13.482;2024-03-06T17:41:54;0.30;99.90
46217;DHT22;47258;59.424;13.482;2024-03-06T17:44:25;0.30;99.90